Terminal Aerodrome Forecast
Issued by NWS

Home | Current Version | Previous Version | Text Only | Print | Product List | Glossary On
Versions: 1 2 3 4 5 6 7 8 9 10 11 12 13 14 15 16 17 18 19 20 21 22 23 24 25 26 27 28 29 30 31 32 33 34
000
FTUS46 KMTR 291740
TAFSNS
TAF
KSNS 291740Z 2918/3018 29012KT P6SM OVC010
     FM291930 31015KT P6SM FEW015 BKN150
     FM300100 32017G22KT P6SM FEW015 BKN150
     FM300500 12011KT P6SM VCSH FEW015 SCT040 BKN080
     FM301300 12013KT P6SM VCSH FEW015 SCT030 BKN050=

USA.gov is the U.S. government's official web portal to all federal, state and local government web resources and services.